Terminal Aerodrome Forecast
Issued by NWS

Home | Current Version | Previous Version | Text Only | Print | Product List | Glossary On
Versions: 1 2 3 4 5 6 7 8 9 10 11 12 13 14
000
FTUS45 KVEF 170500
TAFHND
TAF
KHND 170526Z 1706/1806 17014G20KT P6SM SCT110 BKN250
     FM170700 18007KT P6SM FEW100 BKN250
     FM171400 VRB05KT P6SM SCT250
     FM171900 09007KT P6SM FEW080 SCT250
     FM180000 18010KT P6SM FEW080 SCT250=

USA.gov is the U.S. government's official web portal to all federal, state and local government web resources and services.